Time;durP1;ratioP1;P1;durP2;ratioP2;P2;SDS_P1;SDS_P2;PMS_P1;PMS_P2;Temp;Humidity;BMP_temperature;BMP_pressure;BME280_temperature;BME280_humidity;BME280_pressure;Samples;Min_cycle;Max_cycle;Signal;HPM_P1;HPM_P2
2023/12/13 00:00:14;;;;;;;7.75;4.47;;;;;;;;;;4977063;28;20120;-64
2023/12/13 00:03:06;;;;;;;8.85;4.90;;;;;;;;;;4976201;28;20058;-61
2023/12/13 00:06:00;;;;;;;8.43;4.65;;;;;;;;;;4976653;28;20054;-64
2023/12/13 00:08:54;;;;;;;8.77;4.90;;;;;;;;;;4978391;28;20054;-65
2023/12/13 00:11:48;;;;;;;8.10;4.50;;;;;;;;;;4979152;28;20061;-63
2023/12/13 00:14:35;;;;;;;8.50;4.63;;;;;;;;;;4974807;28;20104;-64
2023/12/13 00:17:29;;;;;;;9.05;4.50;;;;;;;;;;4978316;28;20062;-64
2023/12/13 00:19:57;;;;;;;6.28;3.95;;;;;;;;;;4974346;28;20515;-71
2023/12/13 00:22:24;;;;;;;7.72;4.65;;;;;;;;;;4975305;28;20050;-71
2023/12/13 00:24:58;;;;;;;6.47;4.25;;;;;;;;;;4979091;28;20058;-71
2023/12/13 00:27:25;;;;;;;6.57;4.20;;;;;;;;;;4979524;28;20466;-71
2023/12/13 00:30:14;;;;;;;6.55;3.97;;;;;;;;;;4975588;28;20073;-53
2023/12/13 00:32:48;;;;;;;9.75;4.80;;;;;;;;;;4978070;28;20108;-58
2023/12/13 00:35:22;;;;;;;6.68;3.75;;;;;;;;;;4977486;28;20520;-60
2023/12/13 00:37:56;;;;;;;6.35;3.38;;;;;;;;;;4977463;28;20100;-58
2023/12/13 00:40:24;;;;;;;;;;;;;;;;;;4979012;28;20137;-59
2023/12/13 00:42:58;;;;;;;5.63;3.40;;;;;;;;;;4974519;28;20420;-57
2023/12/13 00:45:25;;;;;;;;;;;;;;;;;;4976322;28;20062;-59
2023/12/13 00:47:52;;;;;;;7.28;3.75;;;;;;;;;;4982429;28;19930;-56
2023/12/13 00:50:27;;;;;;;7.25;3.83;;;;;;;;;;4970572;28;20066;-55
2023/12/13 00:52:54;;;;;;;;;;;;;;;;;;4978796;28;20053;-56
2023/12/13 00:55:21;;;;;;;6.63;3.90;;;;;;;;;;4973094;28;20202;-56
2023/12/13 00:57:55;;;;;;;6.95;3.95;;;;;;;;;;4974107;28;20065;-64
2023/12/13 01:00:22;;;;;;;9.70;4.20;;;;;;;;;;4981475;28;20790;-61
2023/12/13 01:02:56;;;;;;;6.15;3.65;;;;;;;;;;4979178;28;20060;-61
2023/12/13 01:05:23;;;;;;;;;;;;;;;;;;4971635;28;20050;-61
2023/12/13 01:07:51;;;;;;;8.20;4.32;;;;;;;;;;4974158;28;19925;-61
2023/12/13 01:10:25;;;;;;;6.28;3.70;;;;;;;;;;4978160;28;20112;-61
2023/12/13 01:12:53;;;;;;;6.88;3.83;;;;;;;;;;4979991;28;20057;-62
2023/12/13 01:15:23;;;;;;;9.40;3.90;;;;;;;;;;4971769;28;20050;-59
2023/12/13 01:17:57;;;;;;;7.63;4.05;;;;;;;;;;4980026;28;20058;-61
2023/12/13 01:20:24;;;;;;;6.68;4.15;;;;;;;;;;4978856;28;20189;-61
2023/12/13 01:22:58;;;;;;;7.53;4.03;;;;;;;;;;4968909;28;20061;-61
2023/12/13 01:25:45;;;;;;;8.43;4.40;;;;;;;;;;4970472;28;20184;-55
2023/12/13 01:28:53;;;;;;;8.57;4.03;;;;;;;;;;4978104;28;20070;-55
2023/12/13 01:31:47;;;;;;;9.13;3.90;;;;;;;;;;4977757;28;20059;-53
2023/12/13 01:34:41;;;;;;;8.02;4.20;;;;;;;;;;4976783;28;20057;-54
2023/12/13 01:37:29;;;;;;;10.48;5.00;;;;;;;;;;4975459;28;20050;-53
2023/12/13 01:40:22;;;;;;;7.93;4.57;;;;;;;;;;4975555;28;20165;-50
2023/12/13 01:43:29;;;;;;;6.95;4.00;;;;;;;;;;4972752;28;20053;-51
2023/12/13 01:46:23;;;;;;;6.93;3.92;;;;;;;;;;4975164;28;20117;-59
2023/12/13 01:49:12;;;;;;;6.95;4.25;;;;;;;;;;4972315;28;20094;-55
2023/12/13 01:52:06;;;;;;;6.72;3.65;;;;;;;;;;4973391;28;20062;-51
2023/12/13 01:54:54;;;;;;;7.38;4.00;;;;;;;;;;4979655;28;20047;-56
2023/12/13 01:57:48;;;;;;;9.25;4.32;;;;;;;;;;4983599;28;20062;-52
2023/12/13 02:00:36;;;;;;;7.90;4.03;;;;;;;;;;4980556;28;20047;-54
2023/12/13 02:03:30;;;;;;;6.55;4.10;;;;;;;;;;4978453;28;20164;-59
2023/12/13 02:06:17;;;;;;;7.35;4.35;;;;;;;;;;4976997;28;20446;-57
2023/12/13 02:09:11;;;;;;;9.10;4.25;;;;;;;;;;4978844;28;20093;-59
2023/12/13 02:12:05;;;;;;;7.65;3.95;;;;;;;;;;4980882;28;20278;-59
2023/12/13 02:14:52;;;;;;;6.35;4.22;;;;;;;;;;4981378;28;20477;-58
2023/12/13 02:17:52;;;;;;;6.55;4.13;;;;;;;;;;4976546;28;20050;-64
2023/12/13 02:20:40;;;;;;;5.68;3.80;;;;;;;;;;4981746;28;20064;-60
2023/12/13 02:23:34;;;;;;;6.10;3.78;;;;;;;;;;4977009;28;20481;-61
2023/12/13 02:26:21;;;;;;;6.93;4.22;;;;;;;;;;4977673;28;20413;-61
2023/12/13 02:29:28;;;;;;;7.60;4.50;;;;;;;;;;4980182;28;20047;-61
2023/12/13 02:32:22;;;;;;;7.60;4.38;;;;;;;;;;4975534;28;20066;-61
2023/12/13 02:35:16;;;;;;;6.50;4.30;;;;;;;;;;4979471;28;20058;-61
2023/12/13 02:38:04;;;;;;;6.75;4.22;;;;;;;;;;4974716;28;20548;-60
2023/12/13 02:40:57;;;;;;;6.35;4.40;;;;;;;;;;4976604;28;20050;-61
2023/12/13 02:43:45;;;;;;;6.57;3.70;;;;;;;;;;4980387;28;20050;-55
2023/12/13 02:46:38;;;;;;;9.60;4.28;;;;;;;;;;4976211;28;20112;-57
2023/12/13 02:49:26;;;;;;;7.03;3.95;;;;;;;;;;4979769;28;20105;-58
2023/12/13 02:52:19;;;;;;;7.53;4.38;;;;;;;;;;4975332;28;20141;-58
2023/12/13 02:55:07;;;;;;;9.73;4.55;;;;;;;;;;4980572;28;20054;-56
2023/12/13 02:58:01;;;;;;;7.25;4.53;;;;;;;;;;4977880;28;20058;-55
2023/12/13 03:00:50;;;;;;;6.93;4.33;;;;;;;;;;4980081;28;20137;-60
2023/12/13 03:03:43;;;;;;;8.05;4.45;;;;;;;;;;4975511;28;20391;-60
2023/12/13 03:06:30;;;;;;;6.65;4.05;;;;;;;;;;4975391;28;20117;-60
2023/12/13 03:09:24;;;;;;;8.10;4.35;;;;;;;;;;4978670;28;20081;-60
2023/12/13 03:12:11;;;;;;;7.43;4.75;;;;;;;;;;4978377;28;20498;-65
2023/12/13 03:15:05;;;;;;;7.00;4.03;;;;;;;;;;4975785;28;20058;-55
2023/12/13 03:17:52;;;;;;;6.35;3.95;;;;;;;;;;4976718;28;20054;-53
2023/12/13 03:20:47;;;;;;;5.40;3.80;;;;;;;;;;4978516;28;20054;-53
2023/12/13 03:23:34;;;;;;;6.63;3.60;;;;;;;;;;4978109;28;20063;-52
2023/12/13 03:26:27;;;;;;;6.05;3.65;;;;;;;;;;4978878;28;20061;-50
2023/12/13 03:29:21;;;;;;;5.80;3.92;;;;;;;;;;4976292;28;20058;-69
2023/12/13 03:32:15;;;;;;;8.75;3.88;;;;;;;;;;4958401;28;20065;-69
2023/12/13 03:35:02;;;;;;;6.97;3.70;;;;;;;;;;4961029;28;20494;-69
2023/12/13 03:37:56;;;;;;;8.48;4.35;;;;;;;;;;4962918;28;20058;-61
2023/12/13 03:40:43;;;;;;;7.68;4.65;;;;;;;;;;4964434;28;20086;-65
2023/12/13 03:43:37;;;;;;;9.77;4.35;;;;;;;;;;4962923;28;20058;-59
2023/12/13 03:46:24;;;;;;;8.45;4.85;;;;;;;;;;4961523;28;20050;-59
2023/12/13 03:49:18;;;;;;;7.03;4.35;;;;;;;;;;4955286;28;20206;-60
2023/12/13 03:52:12;;;;;;;6.93;4.20;;;;;;;;;;4961168;28;20414;-60
2023/12/13 03:55:00;;;;;;;5.50;3.93;;;;;;;;;;4958676;28;20063;-59
2023/12/13 03:57:53;;;;;;;7.97;4.60;;;;;;;;;;4959405;28;20051;-60
2023/12/13 04:00:40;;;;;;;7.18;4.45;;;;;;;;;;4958078;28;20066;-59
2023/12/13 04:03:34;;;;;;;7.20;4.10;;;;;;;;;;4957930;28;20466;-60
2023/12/13 04:06:22;;;;;;;8.83;5.10;;;;;;;;;;4963663;28;20047;-61
2023/12/13 04:09:16;;;;;;;5.78;3.85;;;;;;;;;;4959836;28;20377;-60
2023/12/13 04:12:04;;;;;;;7.70;4.60;;;;;;;;;;4958034;28;20050;-60
2023/12/13 04:14:57;;;;;;;7.85;4.50;;;;;;;;;;4958018;28;20171;-60
2023/12/13 04:17:44;;;;;;;9.15;4.95;;;;;;;;;;4957987;28;20046;-60
2023/12/13 04:20:39;;;;;;;7.82;4.45;;;;;;;;;;4960638;28;20054;-61
2023/12/13 04:23:41;;;;;;;8.90;5.18;;;;;;;;;;4959167;28;20062;-61
2023/12/13 04:26:42;;;;;;;8.23;4.90;;;;;;;;;;4960064;28;20059;-60
2023/12/13 04:29:36;;;;;;;8.60;4.57;;;;;;;;;;4962852;28;20101;-60
2023/12/13 04:32:30;;;;;;;11.95;5.03;;;;;;;;;;4975186;28;20153;-60
2023/12/13 04:35:18;;;;;;;6.22;4.40;;;;;;;;;;4976423;28;20050;-49
2023/12/13 04:38:11;;;;;;;6.65;3.95;;;;;;;;;;4979255;28;20054;-61
2023/12/13 04:41:05;;;;;;;10.85;4.95;;;;;;;;;;4976948;28;20502;-60
2023/12/13 04:43:52;;;;;;;8.18;4.45;;;;;;;;;;4974440;28;20051;-60
2023/12/13 04:46:46;;;;;;;6.45;4.13;;;;;;;;;;4973092;28;20047;-59
2023/12/13 04:49:33;;;;;;;10.80;4.72;;;;;;;;;;4980614;28;20584;-60
2023/12/13 04:52:27;;;;;;;9.15;4.63;;;;;;;;;;4973090;28;20055;-59
2023/12/13 04:55:15;;;;;;;7.13;4.30;;;;;;;;;;4977963;28;20089;-53
2023/12/13 04:58:08;;;;;;;6.63;4.45;;;;;;;;;;4975955;28;20050;-55
2023/12/13 05:00:56;;;;;;;8.27;5.00;;;;;;;;;;4971561;28;20565;-57
2023/12/13 05:03:50;;;;;;;7.00;4.35;;;;;;;;;;4969640;28;20061;-59
2023/12/13 05:06:38;;;;;;;9.35;4.85;;;;;;;;;;4979149;28;20586;-59
2023/12/13 05:09:31;;;;;;;11.55;4.53;;;;;;;;;;4980295;28;20054;-59
2023/12/13 05:12:19;;;;;;;8.10;5.25;;;;;;;;;;4980526;28;20552;-60
2023/12/13 05:15:13;;;;;;;6.68;3.65;;;;;;;;;;4980604;28;20117;-60
2023/12/13 05:18:08;;;;;;;11.15;5.25;;;;;;;;;;4974305;28;20077;-59
2023/12/13 05:20:54;;;;;;;9.57;5.20;;;;;;;;;;4971798;28;20066;-59
2023/12/13 05:23:48;;;;;;;11.07;5.28;;;;;;;;;;4975583;28;20611;-58
2023/12/13 05:26:35;;;;;;;10.38;5.10;;;;;;;;;;4972332;28;20054;-56
2023/12/13 05:29:36;;;;;;;8.50;4.88;;;;;;;;;;4976787;28;20057;-58
2023/12/13 05:32:23;;;;;;;13.52;4.78;;;;;;;;;;4978025;28;20054;-65
2023/12/13 05:35:17;;;;;;;7.97;4.55;;;;;;;;;;4975073;28;20046;-52
2023/12/13 05:38:05;;;;;;;7.53;4.82;;;;;;;;;;4981273;28;20050;-53
2023/12/13 05:41:00;;;;;;;9.70;4.35;;;;;;;;;;4975466;28;20058;-53
2023/12/13 05:43:47;;;;;;;8.05;4.88;;;;;;;;;;4976213;28;20050;-57
2023/12/13 05:46:41;;;;;;;11.80;4.43;;;;;;;;;;4979880;28;20490;-52
2023/12/13 05:49:35;;;;;;;8.02;4.47;;;;;;;;;;4979217;28;20104;-52
2023/12/13 05:52:29;;;;;;;5.90;3.95;;;;;;;;;;4978092;28;20050;-69
2023/12/13 05:55:16;;;;;;;8.68;4.65;;;;;;;;;;4982495;28;20086;-61
2023/12/13 05:58:10;;;;;;;6.85;4.00;;;;;;;;;;4973454;28;20069;-62
2023/12/13 06:00:57;;;;;;;6.30;3.80;;;;;;;;;;4974656;28;20097;-63
2023/12/13 06:03:51;;;;;;;8.23;3.65;;;;;;;;;;4985993;28;20494;-62
2023/12/13 06:06:45;;;;;;;6.57;3.75;;;;;;;;;;4982162;28;20104;-62
2023/12/13 06:09:42;;;;;;;5.38;3.70;;;;;;;;;;4981226;28;20143;-69
2023/12/13 06:12:28;;;;;;;5.85;3.92;;;;;;;;;;4984191;28;20461;-61
2023/12/13 06:15:23;;;;;;;4.90;3.30;;;;;;;;;;4985309;28;20057;-62
2023/12/13 06:18:10;;;;;;;6.95;3.78;;;;;;;;;;4980988;28;20347;-62
2023/12/13 06:21:04;;;;;;;6.97;4.13;;;;;;;;;;4984351;28;20145;-62
2023/12/13 06:23:59;;;;;;;6.65;3.85;;;;;;;;;;4981361;28;20101;-61
2023/12/13 06:26:45;;;;;;;6.05;3.45;;;;;;;;;;4980899;28;20109;-61
2023/12/13 06:29:46;;;;;;;6.38;3.90;;;;;;;;;;4981927;28;20597;-61
2023/12/13 06:32:40;;;;;;;5.00;3.25;;;;;;;;;;4982860;28;20126;-62
2023/12/13 06:35:33;;;;;;;6.32;3.55;;;;;;;;;;4983735;28;20370;-62
2023/12/13 06:38:27;;;;;;;4.65;2.92;;;;;;;;;;4984367;28;20053;-66
2023/12/13 06:41:14;;;;;;;5.53;3.47;;;;;;;;;;4984512;28;20465;-54
2023/12/13 06:44:08;;;;;;;5.35;3.55;;;;;;;;;;4982781;28;20105;-52
2023/12/13 06:46:56;;;;;;;6.18;3.38;;;;;;;;;;4979573;28;20050;-52
2023/12/13 06:49:49;;;;;;;5.93;3.65;;;;;;;;;;4982141;28;20062;-50
2023/12/13 06:52:36;;;;;;;7.05;3.83;;;;;;;;;;4982034;28;20058;-48
2023/12/13 06:55:30;;;;;;;5.57;3.20;;;;;;;;;;4985397;28;20054;-61
2023/12/13 06:58:18;;;;;;;3.92;2.20;;;;;;;;;;4980246;28;20046;-61
2023/12/13 07:01:12;;;;;;;3.35;2.58;;;;;;;;;;4979148;28;20075;-60
2023/12/13 07:04:01;;;;;;;4.75;3.15;;;;;;;;;;4980467;28;20057;-60
2023/12/13 07:06:55;;;;;;;5.90;3.28;;;;;;;;;;4986665;28;20055;-68
2023/12/13 07:09:49;;;;;;;7.45;3.63;;;;;;;;;;4985281;28;20060;-53
2023/12/13 07:12:44;;;;;;;5.30;3.38;;;;;;;;;;4983288;28;20359;-50
2023/12/13 07:15:37;;;;;;;4.50;3.03;;;;;;;;;;4985502;28;20478;-50
2023/12/13 07:18:31;;;;;;;7.15;3.13;;;;;;;;;;4984711;28;20051;-54
2023/12/13 07:21:25;;;;;;;5.32;3.10;;;;;;;;;;4984028;28;20061;-52
2023/12/13 07:24:12;;;;;;;5.32;3.55;;;;;;;;;;4984445;28;22183;-53
2023/12/13 07:27:06;;;;;;;5.65;3.40;;;;;;;;;;4982206;28;20174;-51
2023/12/13 07:29:53;;;;;;;8.98;3.85;;;;;;;;;;4983188;28;20058;-53
2023/12/13 07:32:54;;;;;;;6.63;3.60;;;;;;;;;;4979287;28;20039;-56
2023/12/13 07:35:45;;;;;;;7.70;3.50;;;;;;;;;;4975751;28;20077;-68
2023/12/13 07:38:35;;;;;;;6.15;3.58;;;;;;;;;;4986720;28;20105;-54
2023/12/13 07:41:23;;;;;;;6.40;3.88;;;;;;;;;;4982483;28;20121;-55
2023/12/13 07:44:16;;;;;;;5.18;3.35;;;;;;;;;;4980867;28;20097;-54
2023/12/13 07:47:10;;;;;;;6.18;3.63;;;;;;;;;;4981901;28;20104;-53
2023/12/13 07:50:04;;;;;;;5.28;3.47;;;;;;;;;;4982084;28;20072;-51
2023/12/13 07:52:59;;;;;;;4.80;3.05;;;;;;;;;;4976360;28;20046;-57
2023/12/13 07:55:46;;;;;;;5.88;3.85;;;;;;;;;;4984430;28;20050;-59
2023/12/13 07:58:50;;;;;;;5.00;2.70;;;;;;;;;;4982271;28;20057;-59
2023/12/13 08:01:38;;;;;;;5.00;2.67;;;;;;;;;;4979341;28;20297;-59
2023/12/13 08:04:32;;;;;;;4.63;2.90;;;;;;;;;;4980126;28;20545;-61
2023/12/13 08:07:18;;;;;;;5.15;3.10;;;;;;;;;;4977098;28;20057;-61
2023/12/13 08:10:12;;;;;;;4.28;3.10;;;;;;;;;;4982978;28;20051;-61
2023/12/13 08:13:00;;;;;;;7.40;3.42;;;;;;;;;;4981919;28;20055;-61
2023/12/13 08:15:53;;;;;;;7.07;3.28;;;;;;;;;;4981272;28;20510;-61
2023/12/13 08:18:47;;;;;;;4.50;2.90;;;;;;;;;;4980818;28;20061;-61
2023/12/13 08:21:40;;;;;;;6.07;2.80;;;;;;;;;;4982826;28;20062;-66
2023/12/13 08:24:32;;;;;;;4.65;2.72;;;;;;;;;;4979477;28;20108;-66
2023/12/13 08:27:26;;;;;;;6.70;2.40;;;;;;;;;;4980553;28;20058;-65
2023/12/13 08:30:21;;;;;;;3.83;2.50;;;;;;;;;;4978229;28;20100;-65
2023/12/13 08:33:21;;;;;;;4.30;2.58;;;;;;;;;;4976668;28;20054;-62
2023/12/13 08:36:12;;;;;;;3.17;2.25;;;;;;;;;;4980085;28;20050;-57
2023/12/13 08:39:06;;;;;;;3.28;2.45;;;;;;;;;;4983285;28;20226;-57
2023/12/13 08:41:53;;;;;;;4.40;2.42;;;;;;;;;;4981280;28;20133;-58
2023/12/13 08:44:49;;;;;;;5.75;2.80;;;;;;;;;;4984448;28;20061;-58
2023/12/13 08:47:37;;;;;;;4.57;2.65;;;;;;;;;;4979678;28;20046;-58
2023/12/13 08:50:31;;;;;;;5.57;3.10;;;;;;;;;;4978805;28;20101;-49
2023/12/13 08:53:25;;;;;;;5.97;2.70;;;;;;;;;;4981940;28;20124;-51
2023/12/13 08:56:19;;;;;;;4.90;3.38;;;;;;;;;;4979769;28;20058;-48
2023/12/13 08:59:13;;;;;;;5.03;3.33;;;;;;;;;;4979581;28;20054;-57
2023/12/13 09:02:01;;;;;;;4.97;3.25;;;;;;;;;;4976797;28;20050;-56
2023/12/13 09:04:54;;;;;;;4.93;3.05;;;;;;;;;;4984340;28;20190;-55
2023/12/13 09:07:41;;;;;;;5.32;3.53;;;;;;;;;;4978560;28;20053;-50
2023/12/13 09:10:35;;;;;;;6.85;3.60;;;;;;;;;;4980046;28;20112;-51
2023/12/13 09:13:24;;;;;;;6.45;3.80;;;;;;;;;;4983288;28;20433;-55
2023/12/13 09:16:17;;;;;;;6.50;3.75;;;;;;;;;;4981806;28;20050;-52
2023/12/13 09:19:04;;;;;;;6.95;4.00;;;;;;;;;;4983864;28;20295;-65
2023/12/13 09:21:58;;;;;;;8.25;4.00;;;;;;;;;;4980362;28;20046;-65
2023/12/13 09:24:46;;;;;;;9.43;3.78;;;;;;;;;;4977124;28;20062;-66
2023/12/13 09:27:39;;;;;;;7.47;4.25;;;;;;;;;;4978444;28;20112;-59
2023/12/13 09:30:33;;;;;;;6.10;3.83;;;;;;;;;;4974956;28;20059;-49
2023/12/13 09:33:27;;;;;;;6.45;3.83;;;;;;;;;;4979020;28;20133;-59
2023/12/13 09:36:17;;;;;;;5.78;3.40;;;;;;;;;;4978118;28;20054;-59
2023/12/13 09:39:08;;;;;;;5.93;3.40;;;;;;;;;;4982238;28;20050;-58
2023/12/13 09:42:03;;;;;;;4.90;2.63;;;;;;;;;;4981122;28;20164;-58
2023/12/13 09:44:59;;;;;;;5.50;2.75;;;;;;;;;;4981758;28;20065;-58
2023/12/13 09:47:53;;;;;;;5.10;2.30;;;;;;;;;;4979814;28;20054;-55
2023/12/13 09:50:47;;;;;;;3.75;2.10;;;;;;;;;;4979875;28;20078;-53
2023/12/13 09:53:43;;;;;;;3.33;2.00;;;;;;;;;;4978166;28;20105;-54
2023/12/13 09:56:30;;;;;;;1.85;1.63;;;;;;;;;;4976057;28;20249;-69
2023/12/13 09:59:25;;;;;;;2.13;1.88;;;;;;;;;;4980726;28;20105;-52
2023/12/13 10:02:17;;;;;;;2.53;1.77;;;;;;;;;;4981594;28;20486;-49
2023/12/13 10:05:11;;;;;;;1.98;1.63;;;;;;;;;;4983199;28;20054;-55
2023/12/13 10:08:06;;;;;;;2.25;1.63;;;;;;;;;;4980647;28;20089;-53
2023/12/13 10:10:53;;;;;;;2.65;1.77;;;;;;;;;;4978575;28;20093;-50
2023/12/13 10:13:47;;;;;;;2.13;1.70;;;;;;;;;;4980561;28;20053;-51
2023/12/13 10:16:41;;;;;;;2.40;1.65;;;;;;;;;;4977022;28;20050;-52
2023/12/13 10:19:44;;;;;;;2.25;1.52;;;;;;;;;;4984117;28;20059;-52
2023/12/13 10:22:38;;;;;;;2.47;1.50;;;;;;;;;;4977814;28;20059;-49
2023/12/13 10:25:24;;;;;;;2.75;1.67;;;;;;;;;;4983143;28;20062;-64
2023/12/13 10:28:20;;;;;;;2.42;1.95;;;;;;;;;;4985994;28;20245;-63
2023/12/13 10:31:12;;;;;;;1.88;1.55;;;;;;;;;;4984889;28;20054;-62
2023/12/13 10:34:05;;;;;;;6.10;2.00;;;;;;;;;;4983031;28;20046;-62
2023/12/13 10:37:00;;;;;;;2.58;1.40;;;;;;;;;;4982470;28;20057;-62
2023/12/13 10:39:50;;;;;;;1.92;1.45;;;;;;;;;;4982858;28;20544;-62
2023/12/13 10:42:47;;;;;;;2.10;1.85;;;;;;;;;;4979267;28;20058;-66
2023/12/13 10:45:35;;;;;;;2.25;1.77;;;;;;;;;;4982435;28;20063;-66
2023/12/13 10:48:34;;;;;;;1.98;1.77;;;;;;;;;;4983802;28;20056;-66
2023/12/13 10:51:22;;;;;;;1.88;1.55;;;;;;;;;;4981554;28;20058;-64
2023/12/13 10:54:16;;;;;;;3.95;2.08;;;;;;;;;;4979701;28;20055;-67
2023/12/13 10:57:03;;;;;;;2.28;1.55;;;;;;;;;;4983702;28;20113;-63
2023/12/13 10:59:58;;;;;;;2.13;1.70;;;;;;;;;;4979633;28;20050;-65
2023/12/13 11:02:49;;;;;;;2.60;1.75;;;;;;;;;;4982621;28;20097;-65
2023/12/13 11:05:42;;;;;;;3.97;1.88;;;;;;;;;;4988163;28;20536;-67
2023/12/13 11:08:37;;;;;;;3.78;1.90;;;;;;;;;;4986771;28;20046;-66
2023/12/13 11:11:30;;;;;;;2.35;1.83;;;;;;;;;;4985295;28;20054;-62
2023/12/13 11:14:20;;;;;;;1.52;1.42;;;;;;;;;;4985515;28;20421;-61
2023/12/13 11:17:13;;;;;;;2.53;1.70;;;;;;;;;;4981338;28;20077;-61
2023/12/13 11:20:09;;;;;;;2.47;1.80;;;;;;;;;;4980874;28;20049;-61
2023/12/13 11:23:06;;;;;;;2.22;1.95;;;;;;;;;;4983090;28;20057;-59
2023/12/13 11:25:56;;;;;;;4.18;1.80;;;;;;;;;;4981950;28;20066;-61
2023/12/13 11:28:51;;;;;;;2.60;1.80;;;;;;;;;;4981181;28;20498;-59
2023/12/13 11:31:44;;;;;;;1.95;1.58;;;;;;;;;;4981818;28;20054;-60
2023/12/13 11:34:42;;;;;;;3.03;1.73;;;;;;;;;;4981417;28;20046;-61
2023/12/13 11:37:29;;;;;;;4.07;1.80;;;;;;;;;;4981472;28;20050;-60
2023/12/13 11:40:21;;;;;;;3.95;1.60;;;;;;;;;;4985281;28;20046;-59
2023/12/13 11:43:09;;;;;;;1.80;1.20;;;;;;;;;;4981403;28;20050;-59
2023/12/13 11:46:03;;;;;;;2.08;1.35;;;;;;;;;;4977765;28;20058;-56
2023/12/13 11:48:50;;;;;;;1.90;1.50;;;;;;;;;;4980539;28;20061;-59
2023/12/13 11:51:44;;;;;;;1.60;1.33;;;;;;;;;;4977919;28;20113;-65
2023/12/13 11:54:41;;;;;;;4.05;1.20;;;;;;;;;;4979674;28;20065;-59
2023/12/13 11:57:26;;;;;;;1.35;1.10;;;;;;;;;;4983947;28;20061;-58
2023/12/13 12:00:19;;;;;;;1.95;1.33;;;;;;;;;;4986974;28;20573;-59
2023/12/13 12:03:06;;;;;;;1.33;1.13;;;;;;;;;;4980824;28;20050;-56
2023/12/13 12:06:00;;;;;;;3.15;1.30;;;;;;;;;;4980729;28;20424;-58
2023/12/13 12:08:48;;;;;;;1.52;1.42;;;;;;;;;;4981387;28;20462;-56
2023/12/13 12:11:43;;;;;;;1.33;1.23;;;;;;;;;;4981926;28;20077;-59
2023/12/13 12:14:30;;;;;;;1.55;1.33;;;;;;;;;;4984010;28;20074;-57
2023/12/13 12:17:25;;;;;;;1.17;1.08;;;;;;;;;;4981611;28;20050;-59
2023/12/13 12:20:11;;;;;;;1.52;1.42;;;;;;;;;;4976500;28;20117;-62
2023/12/13 12:23:04;;;;;;;1.70;1.10;;;;;;;;;;4979906;28;20054;-58
2023/12/13 12:25:55;;;;;;;1.88;1.40;;;;;;;;;;4981515;28;20046;-59
2023/12/13 12:28:48;;;;;;;2.55;1.70;;;;;;;;;;4983573;28;20054;-57
2023/12/13 12:31:42;;;;;;;2.05;1.52;;;;;;;;;;4981356;28;20924;-57
2023/12/13 12:34:36;;;;;;;2.17;1.50;;;;;;;;;;4980539;28;20145;-59
2023/12/13 12:37:30;;;;;;;1.88;1.60;;;;;;;;;;4980455;28;20068;-68
2023/12/13 12:40:18;;;;;;;2.80;1.70;;;;;;;;;;4978646;28;20058;-68
2023/12/13 12:43:13;;;;;;;1.52;1.42;;;;;;;;;;4979389;28;20063;-68
2023/12/13 12:46:00;;;;;;;4.25;1.88;;;;;;;;;;4978674;28;20530;-66
2023/12/13 12:48:53;;;;;;;2.05;1.52;;;;;;;;;;4983372;28;21166;-59
2023/12/13 12:51:47;;;;;;;3.10;1.60;;;;;;;;;;4981709;28;20269;-52
2023/12/13 12:54:42;;;;;;;1.50;1.27;;;;;;;;;;4982969;28;20054;-55
2023/12/13 12:57:28;;;;;;;2.20;1.48;;;;;;;;;;4980715;28;20482;-54
2023/12/13 13:00:22;;;;;;;2.45;1.55;;;;;;;;;;4982096;28;20081;-52
2023/12/13 13:03:16;;;;;;;3.30;1.52;;;;;;;;;;4979459;28;20058;-51
2023/12/13 13:06:10;;;;;;;1.60;1.50;;;;;;;;;;4982205;28;20054;-61
2023/12/13 13:08:57;;;;;;;2.72;1.85;;;;;;;;;;4982032;28;20063;-61
2023/12/13 13:11:51;;;;;;;2.83;2.30;;;;;;;;;;4981250;28;20054;-62
2023/12/13 13:14:39;;;;;;;2.05;1.50;;;;;;;;;;4983282;28;20057;-62
2023/12/13 13:17:32;;;;;;;3.03;1.73;;;;;;;;;;4975802;28;20873;-61
2023/12/13 13:20:19;;;;;;;2.55;1.80;;;;;;;;;;4978625;28;21269;-60
2023/12/13 13:23:13;;;;;;;2.50;2.05;;;;;;;;;;4983410;28;20104;-60
2023/12/13 13:26:09;;;;;;;4.25;2.00;;;;;;;;;;4982906;28;20058;-60
2023/12/13 13:29:01;;;;;;;1.73;1.40;;;;;;;;;;4982978;28;20133;-61
2023/12/13 13:32:04;;;;;;;1.95;1.55;;;;;;;;;;4981817;28;20125;-61
2023/12/13 13:34:56;;;;;;;3.28;1.80;;;;;;;;;;4981654;28;20086;-59
2023/12/13 13:37:50;;;;;;;4.90;1.73;;;;;;;;;;4984787;28;20066;-59
2023/12/13 13:40:45;;;;;;;2.30;1.80;;;;;;;;;;4979991;28;20477;-59
2023/12/13 13:43:32;;;;;;;3.05;1.90;;;;;;;;;;4978041;28;20113;-56
2023/12/13 13:46:28;;;;;;;2.28;1.80;;;;;;;;;;4980524;28;20062;-59
2023/12/13 13:49:15;;;;;;;;;;;;;;;;;;4981292;28;20133;-60
2023/12/13 13:52:08;;;;;;;3.20;2.03;;;;;;;;;;4982841;28;20004;-59
2023/12/13 13:54:56;;;;;;;2.53;1.70;;;;;;;;;;4985082;28;20054;-59
2023/12/13 13:57:50;;;;;;;3.33;1.70;;;;;;;;;;4986410;28;20469;-62
2023/12/13 14:00:38;;;;;;;3.00;2.00;;;;;;;;;;4985740;28;20061;-60
2023/12/13 14:03:31;;;;;;;2.20;1.70;;;;;;;;;;4985542;28;20058;-55
2023/12/13 14:06:19;;;;;;;3.58;1.85;;;;;;;;;;4982797;28;20061;-51
2023/12/13 14:09:12;;;;;;;4.03;1.90;;;;;;;;;;4986630;28;20077;-54
2023/12/13 14:11:59;;;;;;;2.88;2.08;;;;;;;;;;4985341;28;20515;-51
2023/12/13 14:14:53;;;;;;;3.42;1.90;;;;;;;;;;4986109;28;20058;-52
2023/12/13 14:17:40;;;;;;;4.03;2.10;;;;;;;;;;4977681;28;20105;-58
2023/12/13 14:20:35;;;;;;;2.90;2.10;;;;;;;;;;4982099;28;20049;-59
2023/12/13 14:23:29;;;;;;;3.63;2.13;;;;;;;;;;4979897;28;20112;-59
2023/12/13 14:26:17;;;;;;;3.30;2.10;;;;;;;;;;4982518;28;20054;-59
2023/12/13 14:29:12;;;;;;;3.08;2.20;;;;;;;;;;4983897;28;20049;-59
2023/12/13 14:32:06;;;;;;;2.65;1.90;;;;;;;;;;4967338;28;24049;-68
2023/12/13 14:35:01;;;;;;;5.07;2.47;;;;;;;;;;4967306;28;20474;-67
2023/12/13 14:37:48;;;;;;;3.40;2.15;;;;;;;;;;4964859;28;20054;-68
2023/12/13 14:40:42;;;;;;;4.95;2.10;;;;;;;;;;4965126;28;20055;-68
2023/12/13 14:43:29;;;;;;;3.42;2.00;;;;;;;;;;4962202;28;20493;-58
2023/12/13 14:46:23;;;;;;;2.53;1.77;;;;;;;;;;4962725;28;20055;-68
2023/12/13 14:49:10;;;;;;;3.38;2.00;;;;;;;;;;4965890;28;20177;-68
2023/12/13 14:52:04;;;;;;;2.22;1.90;;;;;;;;;;4964138;28;20621;-68
2023/12/13 14:54:52;;;;;;;3.33;2.35;;;;;;;;;;4968731;28;20051;-68
2023/12/13 14:57:45;;;;;;;2.80;2.03;;;;;;;;;;4957998;28;20058;-69
2023/12/13 15:00:32;;;;;;;2.17;1.85;;;;;;;;;;4963027;28;20062;-65
2023/12/13 15:03:26;;;;;;;3.65;2.38;;;;;;;;;;4963897;28;20051;-65
2023/12/13 15:06:13;;;;;;;4.32;2.05;;;;;;;;;;4966245;28;20150;-65
2023/12/13 15:09:07;;;;;;;4.25;2.28;;;;;;;;;;4970090;28;20507;-59
2023/12/13 15:12:01;;;;;;;3.55;2.03;;;;;;;;;;4964063;28;20054;-55
2023/12/13 15:14:48;;;;;;;6.18;2.40;;;;;;;;;;4960450;28;20054;-50
2023/12/13 15:17:42;;;;;;;4.72;2.10;;;;;;;;;;4966530;28;20054;-48
2023/12/13 15:20:36;;;;;;;2.50;2.08;;;;;;;;;;4967424;28;20073;-50
2023/12/13 15:23:24;;;;;;;4.45;2.38;;;;;;;;;;4968702;28;20055;-53
2023/12/13 15:26:17;;;;;;;3.40;1.90;;;;;;;;;;4964351;28;20463;-52
2023/12/13 15:29:04;;;;;;;2.83;2.10;;;;;;;;;;4966596;28;20710;-59
2023/12/13 15:32:11;;;;;;;3.90;2.17;;;;;;;;;;4975071;28;20100;-58
2023/12/13 15:34:59;;;;;;;3.47;2.05;;;;;;;;;;4977585;28;20535;-60
2023/12/13 15:37:53;;;;;;;2.60;1.90;;;;;;;;;;4980920;28;20101;-55
2023/12/13 15:40:40;;;;;;;3.55;2.10;;;;;;;;;;4978574;28;20703;-51
2023/12/13 15:43:34;;;;;;;2.65;2.08;;;;;;;;;;4978370;28;20051;-55
2023/12/13 15:46:22;;;;;;;2.75;1.90;;;;;;;;;;4979646;28;20050;-53
2023/12/13 15:49:15;;;;;;;2.72;2.10;;;;;;;;;;4978007;28;20239;-54
2023/12/13 15:52:09;;;;;;;2.92;2.15;;;;;;;;;;4982574;28;20577;-53
2023/12/13 15:55:04;;;;;;;4.05;1.98;;;;;;;;;;4982247;28;20057;-52
2023/12/13 15:57:51;;;;;;;3.50;2.30;;;;;;;;;;4985265;28;20046;-69
2023/12/13 16:00:46;;;;;;;3.95;2.53;;;;;;;;;;4979809;28;20125;-68
2023/12/13 16:03:33;;;;;;;3.20;2.28;;;;;;;;;;4979980;28;20058;-68
2023/12/13 16:06:26;;;;;;;3.15;2.38;;;;;;;;;;4984500;28;20403;-60
2023/12/13 16:09:21;;;;;;;3.55;2.20;;;;;;;;;;4982299;28;20549;-51
2023/12/13 16:12:14;;;;;;;4.35;2.40;;;;;;;;;;4982990;28;20066;-55
2023/12/13 16:15:02;;;;;;;3.53;2.83;;;;;;;;;;4982471;28;20061;-52
2023/12/13 16:17:55;;;;;;;4.60;2.40;;;;;;;;;;4980339;28;20313;-49
2023/12/13 16:20:42;;;;;;;4.15;2.55;;;;;;;;;;4981953;28;20062;-55
2023/12/13 16:23:36;;;;;;;4.70;2.42;;;;;;;;;;4981731;28;20093;-52
2023/12/13 16:26:23;;;;;;;3.95;2.53;;;;;;;;;;4980181;28;20121;-59
2023/12/13 16:29:19;;;;;;;5.00;2.60;;;;;;;;;;4983693;28;20573;-59
2023/12/13 16:32:12;;;;;;;3.42;2.35;;;;;;;;;;4982250;28;20564;-59
2023/12/13 16:35:05;;;;;;;4.25;2.60;;;;;;;;;;4976712;28;20120;-51
2023/12/13 16:37:52;;;;;;;5.15;2.33;;;;;;;;;;4978873;28;20101;-65
2023/12/13 16:40:46;;;;;;;4.53;2.70;;;;;;;;;;4976417;28;20454;-64
2023/12/13 16:43:33;;;;;;;4.28;2.60;;;;;;;;;;4983774;28;20365;-65
2023/12/13 16:46:27;;;;;;;4.25;2.50;;;;;;;;;;4980595;28;20053;-65
2023/12/13 16:49:15;;;;;;;3.67;2.72;;;;;;;;;;4987022;28;20155;-66
2023/12/13 16:52:08;;;;;;;4.20;2.47;;;;;;;;;;4976487;28;20058;-65
2023/12/13 16:55:02;;;;;;;2.80;2.47;;;;;;;;;;4975072;28;20062;-61
2023/12/13 16:57:56;;;;;;;3.17;2.38;;;;;;;;;;4973878;28;20058;-61
2023/12/13 17:00:44;;;;;;;4.38;2.70;;;;;;;;;;4970882;28;20139;-61